createdAt,value
2022-10-01T00:02:00.149Z,23.80
2022-10-01T00:04:27.188Z,22.30
2022-10-01T00:06:53.488Z,23.30
2022-10-01T00:09:20.168Z,25.10
2022-10-01T00:11:46.374Z,23.40
2022-10-01T00:14:12.577Z,24.20
2022-10-01T00:16:39.061Z,24.90
2022-10-01T00:19:05.421Z,25.80
2022-10-01T00:21:32.602Z,24.00
2022-10-01T00:24:04.550Z,22.80
2022-10-01T00:26:36.425Z,23.90
2022-10-01T00:29:05.317Z,21.90
2022-10-01T00:31:32.753Z,23.20
2022-10-01T00:34:02.513Z,23.30
2022-10-01T00:36:29.980Z,24.90
2022-10-01T00:38:59.602Z,24.70
2022-10-01T00:41:28.954Z,25.60
2022-10-01T00:43:58.187Z,23.00
2022-10-01T00:46:37.099Z,25.70
2022-10-01T00:49:08.321Z,25.90
2022-10-01T00:51:40.512Z,25.50
2022-10-01T00:54:16.030Z,23.00
2022-10-01T00:56:43.389Z,25.50
2022-10-01T00:59:11.151Z,23.00
2022-10-01T01:01:38.774Z,21.00
2022-10-01T01:04:15.718Z,23.30
2022-10-01T01:06:47.293Z,21.10
2022-10-01T01:09:13.693Z,22.00
2022-10-01T01:11:55.348Z,22.80
2022-10-01T01:14:47.298Z,23.80
2022-10-01T01:17:24.453Z,24.60
2022-10-01T01:20:16.655Z,28.00
2022-10-01T01:22:53.965Z,23.80
2022-10-01T01:25:30.307Z,22.30
2022-10-01T01:28:12.615Z,23.00
2022-10-01T01:30:40.639Z,22.10
2022-10-01T01:33:14.944Z,23.50
2022-10-01T01:35:48.535Z,22.30
2022-10-01T01:38:23.600Z,24.30
2022-10-01T01:40:55.089Z,24.60
2022-10-01T01:43:28.713Z,26.10
2022-10-01T01:45:55.848Z,26.70
2022-10-01T01:48:23.729Z,25.60
2022-10-01T01:50:59.059Z,27.10
2022-10-01T01:53:25.729Z,23.40
2022-10-01T01:55:52.826Z,25.90
2022-10-01T01:58:19.886Z,25.10
2022-10-01T02:00:51.652Z,24.50
2022-10-01T02:03:21.274Z,26.30
2022-10-01T02:06:08.756Z,25.40
2022-10-01T02:08:49.150Z,27.60
2022-10-01T02:11:22.378Z,30.10
2022-10-01T02:14:12.564Z,28.90
2022-10-01T02:16:41.839Z,27.30
2022-10-01T02:19:32.923Z,27.20
2022-10-01T02:22:10.323Z,23.80
2022-10-01T02:24:45.420Z,26.60
2022-10-01T02:27:19.357Z,26.40
2022-10-01T02:32:14.806Z,25.50
2022-10-01T02:34:43.428Z,27.40
2022-10-01T02:37:11.296Z,25.00
2022-10-01T02:39:42.685Z,29.90
2022-10-01T02:42:13.870Z,29.50
2022-10-01T02:44:44.280Z,26.10
2022-10-01T02:47:22.514Z,28.30
2022-10-01T02:49:49.560Z,26.90
2022-10-01T02:52:30.506Z,27.10
2022-10-01T02:55:23.411Z,25.10
2022-10-01T02:57:49.654Z,26.30
2022-10-01T03:00:21.027Z,28.40
2022-10-01T03:02:48.973Z,25.70
2022-10-01T03:05:16.887Z,27.20
2022-10-01T03:07:43.336Z,28.00
2022-10-01T03:10:11.372Z,28.20
2022-10-01T03:12:40.410Z,30.70
2022-10-01T03:15:07.360Z,29.10
2022-10-01T03:17:35.441Z,27.00
2022-10-01T03:20:02.354Z,28.50
2022-10-01T03:22:29.007Z,25.50
2022-10-01T03:24:55.338Z,27.70
2022-10-01T03:27:21.707Z,24.00
2022-10-01T03:29:48.528Z,29.00
2022-10-01T03:32:15.057Z,27.10
2022-10-01T03:34:41.411Z,28.10
2022-10-01T03:37:07.898Z,26.70
2022-10-01T03:39:34.370Z,25.70
2022-10-01T03:42:01.492Z,24.40
2022-10-01T03:44:27.720Z,24.90
2022-10-01T03:46:54.398Z,23.20
2022-10-01T03:49:20.628Z,27.10
2022-10-01T03:51:46.839Z,23.90
2022-10-01T03:54:13.502Z,27.10
2022-10-01T03:56:41.854Z,24.20
2022-10-01T03:59:10.231Z,24.90
2022-10-01T04:01:38.611Z,26.00
2022-10-01T04:04:05.768Z,26.70
2022-10-01T04:06:32.395Z,24.90
2022-10-01T04:08:58.979Z,23.50
2022-10-01T04:11:25.443Z,24.30
2022-10-01T04:13:51.738Z,22.90
2022-10-01T04:16:18.110Z,20.80
2022-10-01T04:18:44.496Z,21.20
2022-10-01T04:21:12.134Z,22.30
2022-10-01T04:23:38.389Z,22.50
2022-10-01T04:26:04.915Z,22.00
2022-10-01T04:28:31.601Z,25.50
2022-10-01T04:31:14.213Z,25.40
2022-10-01T04:33:40.780Z,23.70
2022-10-01T04:36:07.312Z,24.00
2022-10-01T04:38:34.071Z,23.40
2022-10-01T04:41:00.513Z,24.30
2022-10-01T04:43:26.763Z,24.10
2022-10-01T04:45:52.967Z,22.50
2022-10-01T04:48:19.218Z,26.20
2022-10-01T04:50:45.799Z,25.50
2022-10-01T04:53:12.186Z,23.40
2022-10-01T04:55:38.419Z,25.70
2022-10-01T04:58:04.641Z,25.50
2022-10-01T05:00:30.950Z,24.10
2022-10-01T05:02:57.489Z,22.30
2022-10-01T05:05:26.484Z,23.20
2022-10-01T05:07:52.716Z,23.40
2022-10-01T05:10:21.731Z,22.80
2022-10-01T05:12:48.980Z,24.00
2022-10-01T05:15:16.570Z,22.40
2022-10-01T05:17:43.400Z,23.10
2022-10-01T05:20:19.746Z,21.50
2022-10-01T05:22:48.214Z,20.10
2022-10-01T05:25:15.684Z,23.80
2022-10-01T05:27:41.922Z,23.10
2022-10-01T05:30:09.877Z,24.10
2022-10-01T05:32:36.972Z,23.90
2022-10-01T05:35:07.656Z,24.30
2022-10-01T05:37:35.526Z,22.70
2022-10-01T05:40:02.985Z,23.10
2022-10-01T05:42:29.425Z,22.50
2022-10-01T05:44:56.077Z,20.60
2022-10-01T05:47:22.472Z,23.60
2022-10-01T05:49:48.925Z,23.90
2022-10-01T05:52:15.774Z,22.40
2022-10-01T05:54:42.205Z,21.80
2022-10-01T05:57:08.759Z,22.00
2022-10-01T05:59:35.504Z,23.10
2022-10-01T06:02:03.519Z,23.90
2022-10-01T06:04:30.717Z,22.00
2022-10-01T06:06:58.159Z,23.20
2022-10-01T06:09:24.563Z,21.20
2022-10-01T06:11:50.824Z,21.00
2022-10-01T06:14:17.282Z,20.20
2022-10-01T06:16:43.854Z,20.70
2022-10-01T06:19:10.190Z,20.90
2022-10-01T06:21:37.097Z,19.60
2022-10-01T06:24:04.540Z,20.80
2022-10-01T06:26:31.249Z,20.80
2022-10-01T06:28:57.724Z,24.20
2022-10-01T06:31:24.306Z,25.40
2022-10-01T06:33:50.745Z,21.00
2022-10-01T06:36:17.255Z,21.00
2022-10-01T06:38:44.265Z,20.50
2022-10-01T06:41:11.608Z,19.40
2022-10-01T06:43:38.261Z,19.70
2022-10-01T06:46:05.280Z,22.80
2022-10-01T06:48:34.707Z,17.10
2022-10-01T06:51:01.562Z,23.30
2022-10-01T06:53:28.710Z,18.00
2022-10-01T06:55:55.276Z,20.40
2022-10-01T06:58:26.796Z,20.60
2022-10-01T07:00:59.216Z,18.90
2022-10-01T07:03:25.539Z,18.60
2022-10-01T07:05:51.841Z,19.40
2022-10-01T07:08:18.694Z,18.10
2022-10-01T07:10:44.979Z,19.30
2022-10-01T07:13:20.153Z,18.10
2022-10-01T07:15:46.605Z,17.50
2022-10-01T07:18:13.430Z,19.00
2022-10-01T07:20:40.623Z,18.00
2022-10-01T07:23:10.677Z,19.20
2022-10-01T07:25:38.468Z,21.20
2022-10-01T07:28:07.873Z,20.50
2022-10-01T07:30:34.549Z,18.20
2022-10-01T07:33:00.778Z,20.20
2022-10-01T07:35:28.924Z,19.00
2022-10-01T07:37:55.203Z,16.10
2022-10-01T07:40:22.118Z,18.20
2022-10-01T07:42:56.118Z,19.40
2022-10-01T07:45:23.654Z,18.70
2022-10-01T07:47:57.375Z,18.30
2022-10-01T07:50:25.257Z,19.50
2022-10-01T07:52:56.651Z,18.90
2022-10-01T07:55:26.218Z,20.90
2022-10-01T07:57:54.672Z,18.50
2022-10-01T08:00:22.645Z,19.70
2022-10-01T08:02:52.659Z,16.80
2022-10-01T08:05:35.888Z,16.60
2022-10-01T08:08:04.810Z,16.90
2022-10-01T08:10:34.700Z,17.50
2022-10-01T08:13:24.110Z,19.50
2022-10-01T08:15:53.898Z,19.00
2022-10-01T08:18:21.854Z,18.30
2022-10-01T08:20:48.352Z,18.60
2022-10-01T08:23:16.540Z,18.40
2022-10-01T08:25:44.085Z,16.40
2022-10-01T08:28:11.287Z,18.40
2022-10-01T08:30:39.131Z,17.30
2022-10-01T08:33:06.400Z,17.50
2022-10-01T08:35:33.248Z,17.00
2022-10-01T08:38:06.780Z,16.30
2022-10-01T08:40:37.955Z,16.80
2022-10-01T08:43:06.717Z,15.20
2022-10-01T08:45:44.185Z,15.50
2022-10-01T08:48:37.919Z,16.20
2022-10-01T08:51:14.917Z,15.70
2022-10-01T08:53:48.245Z,14.30
2022-10-01T08:56:23.691Z,15.40
2022-10-01T08:58:59.166Z,14.40
2022-10-01T09:01:26.659Z,15.50
2022-10-01T09:03:53.373Z,14.70
2022-10-01T09:06:24.873Z,15.10
2022-10-01T09:09:07.572Z,13.80
2022-10-01T09:11:47.941Z,14.20
2022-10-01T09:14:50.531Z,14.10
2022-10-01T09:17:39.071Z,13.40
2022-10-01T09:20:37.276Z,14.00
2022-10-01T09:23:27.685Z,10.90
2022-10-01T09:25:56.461Z,10.40
2022-10-01T09:28:24.527Z,11.90
2022-10-01T09:31:23.081Z,13.20
2022-10-01T09:33:55.708Z,11.10
2022-10-01T09:36:51.386Z,12.50
2022-10-01T09:39:32.600Z,13.10
2022-10-01T09:41:59.031Z,12.50
2022-10-01T09:44:28.575Z,12.90
2022-10-01T09:46:55.558Z,11.20
2022-10-01T09:49:43.309Z,12.00
2022-10-01T09:52:19.875Z,12.20
2022-10-01T09:55:18.265Z,14.20
2022-10-01T09:57:50.545Z,11.50
2022-10-01T10:00:23.767Z,11.50
2022-10-01T10:02:53.332Z,11.80
2022-10-01T10:05:24.007Z,13.60
2022-10-01T10:07:58.014Z,13.50
2022-10-01T10:10:36.116Z,12.90
2022-10-01T10:13:04.637Z,13.50
2022-10-01T10:15:32.363Z,12.20
2022-10-01T10:18:20.376Z,12.00
2022-10-01T10:20:53.269Z,12.50
2022-10-01T10:23:23.092Z,12.60
2022-10-01T10:26:06.613Z,11.50
2022-10-01T10:28:44.014Z,12.10
2022-10-01T10:31:15.904Z,11.20
2022-10-01T10:34:06.060Z,10.60
2022-10-01T10:36:36.129Z,11.10
2022-10-01T10:39:05.481Z,11.90
2022-10-01T10:41:33.890Z,11.20
2022-10-01T10:44:06.541Z,10.30
2022-10-01T10:46:36.907Z,10.00
2022-10-01T10:49:25.628Z,11.80
2022-10-01T10:51:54.181Z,10.90
2022-10-01T10:54:27.396Z,11.40
2022-10-01T10:57:02.718Z,10.70
2022-10-01T10:59:31.645Z,11.60
2022-10-01T11:02:04.147Z,11.00
2022-10-01T11:04:40.889Z,11.50
2022-10-01T11:07:08.949Z,12.60
2022-10-01T11:10:07.123Z,11.50
2022-10-01T11:12:56.657Z,9.30
2022-10-01T11:15:42.874Z,10.50
2022-10-01T11:18:32.084Z,10.50
2022-10-01T11:21:21.761Z,10.70
2022-10-01T11:24:10.014Z,11.50
2022-10-01T11:27:19.464Z,9.80
2022-10-01T11:30:05.475Z,10.90
2022-10-01T11:32:38.385Z,11.70
2022-10-01T11:35:24.892Z,11.30
2022-10-01T11:38:05.838Z,14.50
2022-10-01T11:40:41.159Z,12.70
2022-10-01T11:43:26.391Z,11.30
2022-10-01T11:46:02.724Z,12.10
2022-10-01T11:48:40.828Z,12.30
2022-10-01T11:51:15.735Z,16.30
2022-10-01T11:54:01.054Z,12.40
2022-10-01T11:56:47.209Z,13.60
2022-10-01T11:59:49.287Z,12.10
2022-10-01T12:02:31.760Z,13.10
2022-10-01T12:05:05.369Z,11.70
2022-10-01T12:07:44.518Z,11.90
2022-10-01T12:10:42.685Z,12.30
2022-10-01T12:13:21.734Z,11.40
2022-10-01T12:15:57.261Z,11.00
2022-10-01T12:18:34.312Z,14.00
2022-10-01T12:21:05.831Z,12.30
2022-10-01T12:23:42.598Z,14.00
2022-10-01T12:26:40.754Z,15.20
2022-10-01T12:29:13.696Z,12.80
2022-10-01T12:32:12.953Z,11.30
2022-10-01T12:35:01.725Z,12.50
2022-10-01T12:37:46.092Z,12.00
2022-10-01T12:40:30.127Z,10.50
2022-10-01T12:43:19.928Z,11.60
2022-10-01T12:46:18.075Z,14.70
2022-10-01T12:49:03.360Z,11.10
2022-10-01T12:51:51.810Z,11.20
2022-10-01T12:54:49.049Z,13.50
2022-10-01T12:57:47.164Z,14.20
2022-10-01T13:00:35.216Z,12.60
2022-10-01T13:03:24.746Z,19.10
2022-10-01T13:06:00.615Z,12.20
2022-10-01T13:08:39.646Z,12.00
2022-10-01T13:11:36.734Z,12.60
2022-10-01T13:14:06.435Z,20.30
2022-10-01T13:16:57.654Z,16.50
2022-10-01T13:19:34.420Z,11.70
2022-10-01T13:22:19.997Z,11.30
2022-10-01T13:25:00.566Z,13.40
2022-10-01T13:27:40.491Z,10.50
2022-10-01T13:30:24.046Z,10.30
2022-10-01T13:33:21.005Z,11.10
2022-10-01T13:35:55.481Z,13.70
2022-10-01T13:38:42.842Z,12.70
2022-10-01T13:41:20.976Z,10.60
2022-10-01T13:44:03.289Z,10.90
2022-10-01T13:46:32.222Z,15.50
2022-10-01T13:49:18.356Z,8.80
2022-10-01T13:51:45.419Z,9.80
2022-10-01T13:54:24.575Z,13.40
2022-10-01T13:56:51.123Z,14.40
2022-10-01T13:59:38.247Z,14.50
2022-10-01T14:02:27.652Z,11.80
2022-10-01T14:04:55.857Z,10.20
2022-10-01T14:07:27.173Z,10.50
2022-10-01T14:09:59.970Z,11.00
2022-10-01T14:12:47.898Z,13.00
2022-10-01T14:15:46.260Z,9.60
2022-10-01T14:18:20.396Z,12.20
2022-10-01T14:20:58.832Z,9.40
2022-10-01T14:23:38.401Z,9.30
2022-10-01T14:26:19.345Z,10.90
2022-10-01T14:29:01.672Z,12.80
2022-10-01T14:32:10.471Z,10.50
2022-10-01T14:34:43.367Z,9.60
2022-10-01T14:37:17.498Z,10.50
2022-10-01T14:39:44.814Z,10.50
2022-10-01T14:42:17.734Z,10.00
2022-10-01T14:44:46.117Z,9.00
2022-10-01T14:47:15.893Z,10.50
2022-10-01T14:49:42.151Z,10.00
2022-10-01T14:52:29.052Z,10.30
2022-10-01T14:55:22.834Z,23.50
2022-10-01T14:57:53.524Z,13.40
2022-10-01T15:00:23.852Z,11.80
2022-10-01T15:02:52.646Z,10.80
2022-10-01T15:05:29.424Z,17.00
2022-10-01T15:07:56.309Z,13.90
2022-10-01T15:10:27.136Z,11.50
2022-10-01T15:12:54.992Z,12.80
2022-10-01T15:15:28.793Z,11.50
2022-10-01T15:17:55.182Z,11.30
2022-10-01T15:20:21.551Z,12.70
2022-10-01T15:22:49.753Z,17.10
2022-10-01T15:25:21.704Z,19.10
2022-10-01T15:27:48.715Z,21.80
2022-10-01T15:30:17.545Z,18.00
2022-10-01T15:32:48.088Z,18.20
2022-10-01T15:35:18.812Z,15.70
2022-10-01T15:37:50.103Z,12.30
2022-10-01T15:40:24.580Z,13.60
2022-10-01T15:43:10.985Z,11.70
2022-10-01T15:45:37.265Z,11.40
2022-10-01T15:48:03.592Z,18.00
2022-10-01T15:50:36.444Z,17.10
2022-10-01T15:53:09.446Z,13.70
2022-10-01T15:55:43.344Z,15.40
2022-10-01T15:58:09.470Z,17.70
2022-10-01T16:00:56.997Z,15.10
2022-10-01T16:03:28.385Z,14.00
2022-10-01T16:05:55.229Z,14.80
2022-10-01T16:08:33.408Z,32.60
2022-10-01T16:11:31.369Z,16.10
2022-10-01T16:14:20.326Z,20.20
2022-10-01T16:16:47.742Z,13.90
2022-10-01T16:19:32.242Z,18.80
2022-10-01T16:22:19.566Z,21.90
2022-10-01T16:24:55.140Z,14.10
2022-10-01T16:27:28.507Z,33.00
2022-10-01T16:29:59.108Z,29.70
2022-10-01T16:32:29.086Z,21.40
2022-10-01T16:35:15.589Z,15.80
2022-10-01T16:37:44.658Z,15.60
2022-10-01T16:40:15.943Z,38.40
2022-10-01T16:42:44.061Z,22.80
2022-10-01T16:45:17.201Z,15.80
2022-10-01T16:47:44.735Z,15.30
2022-10-01T16:50:13.413Z,23.20
2022-10-01T16:52:40.166Z,21.80
2022-10-01T16:55:35.580Z,14.60
2022-10-01T16:58:03.242Z,15.90
2022-10-01T17:00:29.732Z,14.40
2022-10-01T17:02:57.034Z,26.20
2022-10-01T17:05:25.152Z,21.70
2022-10-01T17:07:53.279Z,15.80
2022-10-01T17:10:21.757Z,12.70
2022-10-01T17:12:48.653Z,13.10
2022-10-01T17:15:18.931Z,26.80
2022-10-01T17:17:45.728Z,22.30
2022-10-01T17:20:13.109Z,17.20
2022-10-01T17:22:42.026Z,16.40
2022-10-01T17:25:14.606Z,14.00
2022-10-01T17:27:40.835Z,18.50
2022-10-01T17:30:07.675Z,27.40
2022-10-01T17:32:36.485Z,18.40
2022-10-01T17:35:03.614Z,16.00
2022-10-01T17:37:30.663Z,16.50
2022-10-01T17:39:56.966Z,14.70
2022-10-01T17:42:23.194Z,18.20
2022-10-01T17:44:49.540Z,15.20
2022-10-01T17:47:15.790Z,15.40
2022-10-01T17:49:42.940Z,15.20
2022-10-01T17:52:09.776Z,17.20
2022-10-01T17:54:36.941Z,17.40
2022-10-01T17:57:03.298Z,14.00
2022-10-01T17:59:29.557Z,14.20
2022-10-01T18:01:56.556Z,15.70
2022-10-01T18:04:25.128Z,20.50
2022-10-01T18:06:56.025Z,16.60
2022-10-01T18:09:24.544Z,17.00
2022-10-01T18:11:50.843Z,16.30
2022-10-01T18:14:17.094Z,17.80
2022-10-01T18:16:43.352Z,16.40
2022-10-01T18:21:58.552Z,18.30
2022-10-01T18:24:25.063Z,21.00
2022-10-01T18:26:51.395Z,22.80
2022-10-01T18:29:20.904Z,18.40
2022-10-01T18:31:51.979Z,16.90
2022-10-01T18:34:29.159Z,17.10
2022-10-01T18:37:02.565Z,18.10
2022-10-01T18:39:38.011Z,18.40
2022-10-01T18:42:39.614Z,19.90
2022-10-01T18:45:13.330Z,23.00
2022-10-01T18:50:39.800Z,20.80
2022-10-01T18:53:30.927Z,16.90
2022-10-01T18:56:13.146Z,25.00
2022-10-01T18:58:45.374Z,20.60
2022-10-01T19:01:41.157Z,21.40
2022-10-01T19:04:45.827Z,18.00
2022-10-01T19:07:44.167Z,15.90
2022-10-01T19:10:24.359Z,16.80
2022-10-01T19:13:05.859Z,16.60
2022-10-01T19:15:41.682Z,14.90
2022-10-01T19:18:23.817Z,12.40
2022-10-01T19:21:20.994Z,8.40
2022-10-01T19:24:06.022Z,7.30
2022-10-01T19:26:44.247Z,6.80
2022-10-01T19:29:42.748Z,6.80
2022-10-01T19:32:17.258Z,6.70
2022-10-01T19:34:59.775Z,6.30
2022-10-01T19:37:35.732Z,6.50
2022-10-01T19:40:13.237Z,6.60
2022-10-01T19:42:45.549Z,5.30
2022-10-01T19:45:24.870Z,8.40
2022-10-01T19:48:10.294Z,12.30
2022-10-01T19:50:42.578Z,12.30
2022-10-01T19:53:28.494Z,10.00
2022-10-01T19:55:59.223Z,9.20
2022-10-01T19:58:26.118Z,8.60
2022-10-01T20:00:57.808Z,9.20
2022-10-01T20:03:35.513Z,9.10
2022-10-01T20:06:07.856Z,8.20
2022-10-01T20:08:45.386Z,6.80
2022-10-01T20:11:15.098Z,7.40
2022-10-01T20:13:54.099Z,7.40
2022-10-01T20:16:43.040Z,7.90
2022-10-01T20:19:32.317Z,8.80
2022-10-01T20:22:22.229Z,8.20
2022-10-01T20:25:02.207Z,8.50
2022-10-01T20:27:42.258Z,7.50
2022-10-01T20:30:17.258Z,8.00
2022-10-01T20:33:19.258Z,8.60
2022-10-01T20:36:09.978Z,9.30
2022-10-01T20:38:43.869Z,8.10
2022-10-01T20:41:20.543Z,8.40
2022-10-01T20:43:52.025Z,8.90
2022-10-01T20:46:37.486Z,8.70
2022-10-01T20:49:27.251Z,8.90
2022-10-01T20:52:01.485Z,10.50
2022-10-01T20:54:38.073Z,9.60
2022-10-01T20:57:19.420Z,9.40
2022-10-01T20:59:50.797Z,8.10
2022-10-01T21:02:28.045Z,8.60
2022-10-01T21:05:10.301Z,10.80
2022-10-01T21:07:48.004Z,11.40
2022-10-01T21:10:41.750Z,9.60
2022-10-01T21:13:28.741Z,11.70
2022-10-01T21:16:11.009Z,10.70
2022-10-01T21:18:46.024Z,9.90
2022-10-01T21:21:17.929Z,8.70
2022-10-01T21:23:44.370Z,9.50
2022-10-01T21:26:34.930Z,8.60
2022-10-01T21:29:18.538Z,10.90
2022-10-01T21:31:54.668Z,9.30
2022-10-01T21:34:34.476Z,10.30
2022-10-01T21:37:15.724Z,12.70
2022-10-01T21:40:03.179Z,11.50
2022-10-01T21:43:02.157Z,10.90
2022-10-01T21:45:31.086Z,9.60
2022-10-01T21:48:26.765Z,10.40
2022-10-01T21:51:06.797Z,11.40
2022-10-01T21:54:04.036Z,11.00
2022-10-01T21:56:54.271Z,10.10
2022-10-01T21:59:23.527Z,10.70
2022-10-01T22:02:14.151Z,9.50
2022-10-01T22:05:31.732Z,9.10
2022-10-01T22:08:14.337Z,8.90
2022-10-01T22:10:45.691Z,9.00
2022-10-01T22:13:35.250Z,9.60
2022-10-01T22:16:11.629Z,11.70
2022-10-01T22:18:48.600Z,10.50
2022-10-01T22:21:24.182Z,12.50
2022-10-01T22:23:58.355Z,12.10
2022-10-01T22:26:29.302Z,12.20
2022-10-01T22:28:56.973Z,11.00
2022-10-01T22:31:32.066Z,11.20
2022-10-01T22:34:06.813Z,10.60
2022-10-01T22:36:42.793Z,11.80
2022-10-01T22:39:17.306Z,10.50
2022-10-01T22:41:48.587Z,11.00
2022-10-01T22:44:21.801Z,12.10
2022-10-01T22:46:57.142Z,10.10
2022-10-01T22:49:55.340Z,9.90
2022-10-01T22:52:53.778Z,10.90
2022-10-01T22:55:29.910Z,10.50
2022-10-01T22:58:09.798Z,10.90
2022-10-01T23:00:46.919Z,10.70
2022-10-01T23:03:45.106Z,11.20
2022-10-01T23:06:36.003Z,11.40
2022-10-01T23:09:12.446Z,11.90
2022-10-01T23:11:59.595Z,10.20
2022-10-01T23:14:56.894Z,11.90
2022-10-01T23:17:29.565Z,11.50
2022-10-01T23:20:25.082Z,11.80
2022-10-01T23:23:15.990Z,10.80
2022-10-01T23:25:53.896Z,11.60
2022-10-01T23:28:36.034Z,12.70
2022-10-01T23:31:24.175Z,12.00
2022-10-01T23:33:59.480Z,11.50
2022-10-01T23:36:41.022Z,10.90
2022-10-01T23:39:39.863Z,11.10
2022-10-01T23:42:38.017Z,10.70
2022-10-01T23:45:12.671Z,12.40
2022-10-01T23:48:11.882Z,12.00
2022-10-01T23:50:48.605Z,10.80
2022-10-01T23:53:20.281Z,13.10
2022-10-01T23:56:17.967Z,10.60
2022-10-01T23:59:00.981Z,12.10
